Página principal
METAR-TAF:

METAR-TAF

Aeroportos :

Kunming, China

latitude: 25-01N, longitude: 102-41E, altura: 1892 m

Observação actual do tempo

O boletim foi feito há 17 minutos, às 21:00 UTC
Vento 2 kt com direcção variável
Temperatura 14°C
Humidade 77%
Pressão 1022 hPa
Visibilidade 10 km ou mais
Poucas nuvensa uma altura de 2600 ft

METAR: ZPPP 272100Z VRB01MPS 9999 FEW026 14/10 Q1022 NOSIG

Hora: 05:17 (21:17 UTC)

Previsão

O boletim foi feito há 8 horas e 12 minutos, às 13:05 UTC
Previsão válida de 27 às 18 UTC a 28 às 18 UTC
Vento 8 kt de nordeste
Visibilidade 10 km ou mais
Nuvens dispersasa uma altura de 2600 ft
Tornando-se
de 28 às 02 UTC a 28 às 03 UTC
Vento 10 kt de sudoeste

TAF: ZPPP 271305Z 2718/2818 04004MPS 9999 SCT026 TX25/2808Z TN11/2723Z BECMG 2802/2803 22005MPS

Observações e previsões do tempo de mais de 4000 aeroportos (mensagens METAR e TAF).

As estações disponíveis são os pontos amarelos e vermelhos sobre o mapa.

Mova o rato sobre o mapa para ver o nome da estação.

Depois clique no ponto para visualizar as observações e previsões meteorológicas.

Para alterar o mapa : clique nos botões verdes com uma cruz preta para aumentar o zoom; no botão verde com uma pitada de zoom; ou nas setas verdes para mapas adjacentes.


METAR-TAF: